Time;durP1;ratioP1;P1;durP2;ratioP2;P2;SDS_P1;SDS_P2;PMS_P1;PMS_P2;Temp;Humidity;BMP_temperature;BMP_pressure;BME280_temperature;BME280_humidity;BME280_pressure;Samples;Min_cycle;Max_cycle;Signal;HPM_P1;HPM_P2
2020/12/04 00:00:11;;;;;;;28.08;12.60;;;-2.60;99.90;;;;;;5082358;28;20120;-78
2020/12/04 00:02:37;;;;;;;26.58;10.38;;;-2.60;99.90;;;;;;5048190;28;20033;-78
2020/12/04 00:05:04;;;;;;;24.20;9.32;;;-2.60;99.90;;;;;;5050479;28;20031;-77
2020/12/04 00:07:30;;;;;;;27.85;11.13;;;-2.60;99.90;;;;;;5063020;28;20021;-77
2020/12/04 00:09:55;;;;;;;27.67;9.82;;;-2.60;99.90;;;;;;5066829;28;20359;-77
2020/12/04 00:12:21;;;;;;;26.20;10.43;;;-2.60;99.90;;;;;;5066601;28;20052;-77
2020/12/04 00:14:47;;;;;;;27.60;10.73;;;-2.60;99.90;;;;;;5064730;28;20116;-76
2020/12/04 00:17:13;;;;;;;31.45;10.88;;;-2.60;99.90;;;;;;5066355;28;20025;-76
2020/12/04 00:19:39;;;;;;;27.73;10.20;;;-2.50;99.90;;;;;;5086834;28;20040;-76
2020/12/04 00:22:05;;;;;;;25.50;10.40;;;-2.50;99.90;;;;;;5074263;28;20028;-76
2020/12/04 00:24:31;;;;;;;27.05;9.93;;;-2.50;99.90;;;;;;5068593;28;20036;-77
2020/12/04 00:26:58;;;;;;;25.85;11.25;;;-2.40;99.90;;;;;;5071873;28;20016;-77
2020/12/04 00:29:26;;;;;;;28.95;11.00;;;-2.40;99.90;;;;;;5064397;28;20111;-76
2020/12/04 00:31:53;;;;;;;25.45;9.40;;;-2.40;99.90;;;;;;5050442;28;20033;-77
2020/12/04 00:34:20;;;;;;;26.05;10.55;;;-2.40;99.90;;;;;;5049729;28;20044;-77
2020/12/04 00:36:46;;;;;;;22.80;8.73;;;-2.30;99.90;;;;;;5052447;28;20108;-76
2020/12/04 00:39:12;;;;;;;21.45;8.63;;;-2.30;99.90;;;;;;5083338;28;20034;-76
2020/12/04 00:41:38;;;;;;;20.38;9.38;;;-2.30;99.90;;;;;;5077276;28;20127;-76
2020/12/04 00:44:04;;;;;;;20.98;8.48;;;-2.30;99.90;;;;;;5069509;28;20032;-76
2020/12/04 00:46:30;;;;;;;25.50;9.52;;;-2.20;99.90;;;;;;5058700;28;20179;-76
2020/12/04 00:48:55;;;;;;;22.63;9.05;;;-2.30;99.90;;;;;;5065466;28;20040;-77
2020/12/04 00:51:21;;;;;;;25.40;7.95;;;-2.20;99.90;;;;;;5049052;28;20040;-76
2020/12/04 00:53:50;;;;;;;23.98;9.10;;;-2.20;99.90;;;;;;5039931;28;20146;-76
2020/12/04 00:56:17;;;;;;;21.13;7.35;;;-2.20;99.90;;;;;;5034203;28;20039;-76
2020/12/04 00:58:46;;;;;;;20.50;8.75;;;-2.20;99.90;;;;;;5060171;28;20030;-76
2020/12/04 01:01:12;;;;;;;24.35;9.07;;;-2.20;99.90;;;;;;5077219;28;20618;-76
2020/12/04 01:03:38;;;;;;;17.85;7.85;;;-2.20;99.90;;;;;;5055789;28;20447;-76
2020/12/04 01:06:04;;;;;;;17.65;8.65;;;-2.20;99.90;;;;;;5061211;28;20117;-76
2020/12/04 01:08:30;;;;;;;15.00;7.75;;;-2.20;99.90;;;;;;5072457;28;20043;-76
2020/12/04 01:10:56;;;;;;;27.30;8.05;;;-2.10;99.90;;;;;;5051958;28;20128;-76
2020/12/04 01:13:22;;;;;;;21.15;8.45;;;-2.10;99.90;;;;;;5059411;28;20024;-76
2020/12/04 01:15:48;;;;;;;20.73;7.45;;;-2.10;99.90;;;;;;5070635;28;20051;-75
2020/12/04 01:18:13;;;;;;;19.48;7.20;;;-2.10;99.90;;;;;;5074873;28;20491;-76
2020/12/04 01:20:39;;;;;;;16.35;7.65;;;-2.10;99.90;;;;;;5061859;28;20029;-76
2020/12/04 01:23:05;;;;;;;19.35;6.85;;;-2.10;99.90;;;;;;5068705;28;20036;-76
2020/12/04 01:25:31;;;;;;;20.73;8.13;;;-2.10;99.90;;;;;;5067652;28;20040;-76
2020/12/04 01:27:56;;;;;;;17.75;7.10;;;-2.10;99.90;;;;;;5077162;28;20029;-76
2020/12/04 01:30:22;;;;;;;20.83;8.00;;;-2.10;99.90;;;;;;5056245;28;20475;-76
2020/12/04 01:32:48;;;;;;;18.25;7.50;;;-2.20;99.90;;;;;;5061014;28;20043;-75
2020/12/04 01:35:14;;;;;;;17.58;7.80;;;-2.10;99.90;;;;;;5057910;28;20040;-76
2020/12/04 01:37:41;;;;;;;20.17;8.68;;;-2.10;99.90;;;;;;5060548;28;20453;-76
2020/12/04 01:40:07;;;;;;;22.52;8.82;;;-2.10;99.90;;;;;;5052488;28;20059;-76
2020/12/04 01:42:32;;;;;;;13.32;6.47;;;-2.10;99.90;;;;;;5052851;28;20060;-76
2020/12/04 01:44:58;;;;;;;18.88;7.70;;;-2.10;99.90;;;;;;5053869;28;20028;-75
2020/12/04 01:47:24;;;;;;;15.30;6.53;;;-2.10;99.90;;;;;;5063585;28;20065;-75
2020/12/04 01:49:51;;;;;;;14.63;7.22;;;-2.00;99.90;;;;;;5052103;28;20052;-76
2020/12/04 01:52:17;;;;;;;15.43;6.78;;;-2.00;99.90;;;;;;5051746;28;20036;-76
2020/12/04 01:54:47;;;;;;;17.88;7.68;;;-2.00;99.90;;;;;;5055285;28;20486;-76
2020/12/04 01:57:16;;;;;;;14.77;5.45;;;-2.00;99.90;;;;;;5070335;28;20032;-77
2020/12/04 01:59:42;;;;;;;17.58;6.95;;;-2.00;99.90;;;;;;5069947;28;20040;-76
2020/12/04 02:02:22;;;;;;;19.33;8.38;;;-2.00;99.90;;;;;;5054166;28;20025;-76
2020/12/04 02:04:48;;;;;;;14.18;6.10;;;-2.00;99.90;;;;;;5060231;28;20029;-76
2020/12/04 02:07:35;;;;;;;15.77;6.32;;;-1.90;99.90;;;;;;5082418;28;20036;-76
2020/12/04 02:10:06;;;;;;;22.02;7.85;;;-1.90;99.90;;;;;;5059962;28;20028;-76
2020/12/04 02:12:34;;;;;;;11.05;5.57;;;-1.90;99.90;;;;;;5035248;28;20113;-76
2020/12/04 02:15:01;;;;;;;20.45;7.75;;;-2.00;99.90;;;;;;5058469;28;20039;-76
2020/12/04 02:17:32;;;;;;;19.35;7.43;;;-2.00;99.90;;;;;;5088759;28;20077;-76
2020/12/04 02:19:58;;;;;;;19.45;6.90;;;-2.00;99.90;;;;;;5062641;28;20033;-76
2020/12/04 02:22:24;;;;;;;16.42;7.07;;;-2.00;99.90;;;;;;5061443;28;20031;-76
2020/12/04 02:24:53;;;;;;;19.40;6.88;;;-2.00;99.90;;;;;;5052911;28;20091;-76
2020/12/04 02:27:19;;;;;;;17.17;6.93;;;-2.00;99.90;;;;;;5058418;28;20028;-76
2020/12/04 02:29:45;;;;;;;17.85;8.10;;;-2.00;99.90;;;;;;5081601;28;20635;-76
2020/12/04 02:32:14;;;;;;;16.08;6.90;;;-2.00;99.90;;;;;;5051307;28;20036;-76
2020/12/04 02:34:40;;;;;;;18.38;6.95;;;-2.00;99.90;;;;;;5053587;28;20486;-76
2020/12/04 02:37:07;;;;;;;19.55;7.93;;;-2.00;99.90;;;;;;5069537;28;20017;-77
2020/12/04 02:39:34;;;;;;;15.60;7.80;;;-2.00;99.90;;;;;;5060844;28;20036;-77
2020/12/04 02:42:00;;;;;;;15.60;6.75;;;-2.00;99.90;;;;;;5050081;28;20052;-76
2020/12/04 02:44:26;;;;;;;17.98;6.03;;;-1.90;99.90;;;;;;5065271;28;20025;-76
2020/12/04 02:46:52;;;;;;;24.45;7.45;;;-1.90;99.90;;;;;;5078414;28;20036;-76
2020/12/04 02:49:20;;;;;;;18.95;6.82;;;-1.90;99.90;;;;;;5045653;28;20498;-76
2020/12/04 02:51:50;;;;;;;17.33;6.05;;;-1.90;99.90;;;;;;5050871;28;20037;-76
2020/12/04 02:54:17;;;;;;;20.80;8.90;;;-1.90;99.90;;;;;;5051498;28;20116;-77
2020/12/04 02:56:43;;;;;;;21.88;8.30;;;-1.90;99.90;;;;;;5054841;28;20028;-77
2020/12/04 02:59:10;;;;;;;16.73;7.55;;;-1.90;99.90;;;;;;5050954;28;20090;-77
2020/12/04 03:01:36;;;;;;;17.05;6.55;;;-1.90;99.90;;;;;;5050557;28;20055;-76
2020/12/04 03:04:02;;;;;;;21.50;8.15;;;-1.90;99.90;;;;;;5062265;28;20047;-76
2020/12/04 03:06:28;;;;;;;20.83;8.63;;;-1.90;99.90;;;;;;5057102;28;20071;-77
2020/12/04 03:08:55;;;;;;;13.05;6.40;;;-1.90;99.90;;;;;;5065940;28;20090;-76
2020/12/04 03:11:22;;;;;;;19.13;7.15;;;-1.80;99.90;;;;;;5070526;28;20021;-75
2020/12/04 03:13:48;;;;;;;15.38;6.22;;;-1.80;99.90;;;;;;5071235;28;20025;-76
2020/12/04 03:16:15;;;;;;;13.43;5.68;;;-1.80;99.90;;;;;;5063395;28;20056;-76
2020/12/04 03:18:41;;;;;;;14.50;6.68;;;-1.90;99.90;;;;;;5082418;28;20035;-76
2020/12/04 03:21:07;;;;;;;17.48;7.40;;;-1.90;99.90;;;;;;5049374;28;20494;-76
2020/12/04 03:23:33;;;;;;;19.15;7.93;;;-1.90;99.90;;;;;;5033717;28;20040;-76
2020/12/04 03:25:58;;;;;;;16.92;6.13;;;-1.90;99.90;;;;;;5062251;28;20036;-76
2020/12/04 03:28:24;;;;;;;19.77;7.30;;;-1.80;99.90;;;;;;5085852;28;20052;-77
2020/12/04 03:30:50;;;;;;;18.52;8.05;;;-1.90;99.90;;;;;;5070047;28;20029;-76
2020/12/04 03:33:16;;;;;;;15.10;7.07;;;-1.90;99.90;;;;;;5062770;28;20494;-77
2020/12/04 03:35:42;;;;;;;21.42;8.10;;;-1.80;99.90;;;;;;5058189;28;20124;-77
2020/12/04 03:38:07;;;;;;;17.95;7.20;;;-1.80;99.90;;;;;;5047481;28;20127;-77
2020/12/04 03:40:33;;;;;;;16.75;7.13;;;-1.80;99.90;;;;;;5043035;28;20595;-77
2020/12/04 03:42:59;;;;;;;18.67;8.13;;;-1.90;99.90;;;;;;5069410;28;20033;-77
2020/12/04 03:45:24;;;;;;;19.58;7.78;;;-1.90;99.90;;;;;;5070000;28;20482;-76
2020/12/04 03:47:50;;;;;;;17.90;7.15;;;-1.80;99.90;;;;;;5063121;28;20033;-76
2020/12/04 03:50:16;;;;;;;19.85;6.90;;;-1.80;99.90;;;;;;5078890;28;20494;-75
2020/12/04 03:52:41;;;;;;;17.25;6.43;;;-1.70;99.90;;;;;;5067394;28;20123;-76
2020/12/04 03:55:07;;;;;;;15.07;6.60;;;-1.70;99.90;;;;;;5053425;28;20055;-75
2020/12/04 03:57:33;;;;;;;19.40;8.13;;;-1.70;99.90;;;;;;5077096;28;20453;-75
2020/12/04 03:59:59;;;;;;;20.42;7.22;;;-1.70;99.90;;;;;;5055682;28;20033;-76
2020/12/04 04:02:25;;;;;;;16.23;6.57;;;-1.80;99.90;;;;;;5050922;28;20123;-76
2020/12/04 04:04:51;;;;;;;17.48;6.70;;;-1.80;99.90;;;;;;5065185;28;20017;-77
2020/12/04 04:07:17;;;;;;;15.63;6.57;;;-1.80;99.90;;;;;;5068924;28;20043;-77
2020/12/04 04:09:45;;;;;;;13.02;6.20;;;-1.80;99.90;;;;;;5071245;28;20021;-76
2020/12/04 04:12:11;;;;;;;22.35;7.80;;;-1.80;99.90;;;;;;5069983;28;20485;-76
2020/12/04 04:14:37;;;;;;;18.25;7.60;;;-1.80;99.90;;;;;;5053577;28;20106;-76
2020/12/04 04:17:02;;;;;;;14.73;6.95;;;-1.80;99.90;;;;;;5063477;28;20155;-77
2020/12/04 04:19:28;;;;;;;17.13;6.55;;;-1.90;99.90;;;;;;5061827;28;20394;-77
2020/12/04 04:21:54;;;;;;;14.00;6.63;;;-1.90;99.90;;;;;;5031812;28;20029;-76
2020/12/04 04:24:21;;;;;;;21.58;6.60;;;-1.90;99.90;;;;;;5050545;28;20445;-76
2020/12/04 04:26:51;;;;;;;18.38;6.72;;;-1.90;99.90;;;;;;5057033;28;20040;-76
2020/12/04 04:29:17;;;;;;;17.40;7.10;;;-1.90;99.90;;;;;;5073342;28;20061;-76
2020/12/04 04:31:42;;;;;;;15.75;6.45;;;-1.90;99.90;;;;;;5040655;28;20091;-76
2020/12/04 04:34:08;;;;;;;13.48;5.85;;;-1.90;99.90;;;;;;5085385;28;20120;-76
2020/12/04 04:36:35;;;;;;;16.67;6.10;;;-1.90;99.90;;;;;;5078920;28;20043;-76
2020/12/04 04:39:00;;;;;;;16.05;7.32;;;-1.90;99.90;;;;;;5082167;28;20032;-76
2020/12/04 04:41:26;;;;;;;20.35;7.55;;;-1.90;99.90;;;;;;5061457;28;20529;-76
2020/12/04 04:43:53;;;;;;;15.55;5.97;;;-1.90;99.90;;;;;;5080412;28;20040;-76
2020/12/04 04:46:31;;;;;;;17.45;6.88;;;-1.80;99.90;;;;;;5062027;28;20080;-75
2020/12/04 04:49:00;;;;;;;20.83;8.13;;;-1.90;99.90;;;;;;5067457;28;20103;-77
2020/12/04 04:51:26;;;;;;;15.80;6.45;;;-1.90;99.90;;;;;;5073592;28;20033;-76
2020/12/04 04:53:57;;;;;;;21.25;8.02;;;-1.90;99.90;;;;;;5063126;28;20032;-77
2020/12/04 04:56:24;;;;;;;16.80;7.82;;;-1.80;99.90;;;;;;5066724;28;20091;-77
2020/12/04 04:58:50;;;;;;;15.85;6.80;;;-1.90;99.90;;;;;;5087761;28;20060;-77
2020/12/04 05:01:17;;;;;;;21.42;7.63;;;-1.90;99.90;;;;;;5072097;28;20044;-78
2020/12/04 05:03:58;;;;;;;16.42;7.35;;;-1.80;99.90;;;;;;5074380;28;20044;-77
2020/12/04 05:06:37;;;;;;;20.45;8.57;;;-1.80;99.90;;;;;;5074855;28;20064;-76
2020/12/04 05:09:07;;;;;;;18.83;7.35;;;-1.80;99.90;;;;;;5053059;28;20120;-77
2020/12/04 05:11:34;;;;;;;20.50;7.93;;;-1.80;99.90;;;;;;5053152;28;20470;-77
2020/12/04 05:14:22;;;;;;;21.92;8.30;;;-1.80;99.90;;;;;;5064690;28;20024;-77
2020/12/04 05:16:55;;;;;;;18.40;8.35;;;-1.80;99.90;;;;;;5070063;28;20427;-77
2020/12/04 05:19:34;;;;;;;19.95;8.80;;;-1.80;99.90;;;;;;5074082;28;20116;-78
2020/12/04 05:22:16;;;;;;;20.80;8.13;;;-1.90;99.90;;;;;;5071645;28;20043;-77
2020/12/04 05:24:43;;;;;;;20.55;7.72;;;-1.90;99.90;;;;;;5071680;28;20051;-76
2020/12/04 05:27:29;;;;;;;22.15;8.40;;;-1.90;99.90;;;;;;5060362;28;20037;-77
2020/12/04 05:29:56;;;;;;;15.40;6.20;;;-1.90;99.90;;;;;;5077439;28;20089;-77
2020/12/04 05:32:23;;;;;;;21.85;8.30;;;-1.90;99.90;;;;;;5053632;28;20029;-76
2020/12/04 05:34:50;;;;;;;12.52;4.55;;;-1.90;99.90;;;;;;5072427;23;20040;-76
2020/12/04 05:37:20;;;;;;;16.73;6.85;;;-1.90;99.90;;;;;;5080324;28;20569;-76
2020/12/04 05:39:47;;;;;;;21.35;7.78;;;-1.90;99.90;;;;;;5059316;28;20024;-76
2020/12/04 05:42:33;;;;;;;18.90;7.10;;;-1.90;99.90;;;;;;5052071;28;20087;-76
2020/12/04 05:45:00;;;;;;;25.30;7.40;;;-1.90;99.90;;;;;;5046512;28;20475;-75
2020/12/04 05:47:55;;;;;;;18.35;7.53;;;-1.90;99.90;;;;;;5040027;28;20033;-76
2020/12/04 05:50:21;;;;;;;21.35;7.82;;;-1.90;99.90;;;;;;5041291;28;20045;-76
2020/12/04 05:52:48;;;;;;;20.65;8.40;;;-1.90;99.90;;;;;;5051523;28;20039;-76
2020/12/04 05:55:15;;;;;;;20.73;8.25;;;-1.90;99.90;;;;;;5027252;28;20032;-76
2020/12/04 05:57:53;;;;;;;21.65;7.40;;;-1.80;99.90;;;;;;5033531;28;20083;-77
2020/12/04 06:00:21;;;;;;;15.60;6.97;;;-1.80;99.90;;;;;;5032368;28;20127;-77
2020/12/04 06:02:57;;;;;;;15.00;7.22;;;-1.80;99.90;;;;;;5014578;28;20040;-77
2020/12/04 06:05:26;;;;;;;21.50;7.20;;;-1.70;99.90;;;;;;5031809;28;20112;-77
2020/12/04 06:08:05;;;;;;;22.10;6.95;;;-1.70;99.90;;;;;;5027310;28;20034;-76
2020/12/04 06:10:34;;;;;;;19.90;7.47;;;-1.60;99.90;;;;;;5012205;28;20399;-76
2020/12/04 06:13:01;;;;;;;17.35;7.15;;;-1.50;99.90;;;;;;5042968;28;20382;-76
2020/12/04 06:15:29;;;;;;;18.55;8.25;;;-1.50;99.90;;;;;;5047971;28;20556;-77
2020/12/04 06:18:11;;;;;;;18.85;7.25;;;-1.50;99.90;;;;;;5009755;28;20025;-76
2020/12/04 06:20:45;;;;;;;23.50;8.35;;;-1.40;99.90;;;;;;5053120;28;20430;-76
2020/12/04 06:23:16;;;;;;;21.63;8.38;;;-1.40;99.90;;;;;;5028770;28;20060;-77
2020/12/04 06:26:01;;;;;;;21.05;7.82;;;-1.40;99.90;;;;;;5042043;28;20493;-76
2020/12/04 06:28:35;;;;;;;23.30;7.22;;;-1.40;99.90;;;;;;5035271;28;20114;-76
2020/12/04 06:31:03;;;;;;;19.77;7.68;;;-1.40;99.90;;;;;;5051252;28;20047;-77
2020/12/04 06:33:33;;;;;;;18.80;7.25;;;-1.40;99.90;;;;;;5050346;28;20025;-76
2020/12/04 06:36:00;;;;;;;18.10;7.30;;;-1.40;99.90;;;;;;5021453;28;20388;-76
2020/12/04 06:38:35;;;;;;;19.55;9.15;;;-1.50;99.90;;;;;;5029533;28;20083;-76
2020/12/04 06:41:19;;;;;;;16.02;7.65;;;-1.50;99.90;;;;;;5052524;28;20036;-76
2020/12/04 06:43:47;;;;;;;16.80;6.80;;;-1.50;99.90;;;;;;5050980;28;20057;-77
2020/12/04 06:46:31;;;;;;;18.25;7.53;;;-1.50;99.90;;;;;;5049621;28;20116;-76
2020/12/04 06:49:22;;;;;;;20.05;8.43;;;-1.50;99.90;;;;;;5038623;28;20033;-76
2020/12/04 06:51:58;;;;;;;18.83;7.13;;;-1.60;99.90;;;;;;5052147;28;20079;-76
2020/12/04 06:54:25;;;;;;;22.85;8.23;;;-1.60;99.90;;;;;;5029785;28;20028;-76
2020/12/04 06:56:51;;;;;;;22.48;7.63;;;-1.70;99.90;;;;;;5047337;28;20100;-77
2020/12/04 06:59:21;;;;;;;20.23;7.10;;;-1.70;99.90;;;;;;5039099;28;20032;-76
2020/12/04 07:01:47;;;;;;;16.67;7.38;;;-1.70;99.90;;;;;;5030732;28;20436;-77
2020/12/04 07:04:14;;;;;;;23.45;8.82;;;-1.70;99.90;;;;;;5042832;28;20067;-76
2020/12/04 07:06:40;;;;;;;25.42;9.35;;;-1.70;99.90;;;;;;5030436;28;20029;-76
2020/12/04 07:09:06;;;;;;;20.35;7.97;;;-1.70;99.90;;;;;;5025858;28;20095;-77
2020/12/04 07:11:32;;;;;;;17.75;6.72;;;-1.70;99.90;;;;;;5046441;28;20509;-76
2020/12/04 07:13:58;;;;;;;27.25;8.43;;;-1.70;99.90;;;;;;5050627;28;20025;-76
2020/12/04 07:16:28;;;;;;;17.92;7.47;;;-1.60;99.90;;;;;;5046077;28;20024;-76
2020/12/04 07:18:54;;;;;;;23.52;7.95;;;-1.70;99.90;;;;;;5010510;28;20511;-76
2020/12/04 07:21:21;;;;;;;22.70;8.48;;;-1.70;99.90;;;;;;5012231;28;20061;-76
2020/12/04 07:23:48;;;;;;;24.92;8.50;;;-1.60;99.90;;;;;;5039177;28;20033;-76
2020/12/04 07:26:18;;;;;;;25.45;9.27;;;-1.60;99.90;;;;;;5046157;28;20017;-76
2020/12/04 07:28:46;;;;;;;20.83;8.95;;;-1.60;99.90;;;;;;5048159;28;20425;-76
2020/12/04 07:31:19;;;;;;;23.10;8.95;;;-1.50;99.90;;;;;;5031575;28;20104;-76
2020/12/04 07:33:55;;;;;;;23.95;8.48;;;-1.50;99.90;;;;;;5012403;28;20021;-76
2020/12/04 07:36:21;;;;;;;19.73;8.10;;;-1.50;99.90;;;;;;5036307;28;20060;-76
2020/12/04 07:38:51;;;;;;;25.65;8.40;;;-1.40;99.90;;;;;;5030721;28;20061;-76
2020/12/04 07:41:30;;;;;;;24.33;7.57;;;-1.50;99.90;;;;;;5029087;28;20088;-76
2020/12/04 07:44:01;;;;;;;21.92;8.00;;;-1.40;99.90;;;;;;5010730;28;20026;-76
2020/12/04 07:46:28;;;;;;;20.92;8.05;;;-1.40;99.90;;;;;;5024539;28;20059;-76
2020/12/04 07:49:11;;;;;;;22.63;9.05;;;-1.30;99.90;;;;;;5044925;28;20075;-77
2020/12/04 07:51:40;;;;;;;21.65;8.68;;;-1.30;99.90;;;;;;5047125;28;20108;-77
2020/12/04 07:54:24;;;;;;;18.05;8.18;;;-1.30;99.90;;;;;;5049646;28;20129;-77
2020/12/04 07:56:52;;;;;;;28.67;8.95;;;-1.20;99.90;;;;;;5032688;28;20399;-76
2020/12/04 07:59:27;;;;;;;18.55;8.80;;;-1.10;99.90;;;;;;5027974;28;20067;-76
2020/12/04 08:01:54;;;;;;;23.23;9.80;;;-1.10;99.90;;;;;;5043156;28;20033;-75
2020/12/04 08:04:20;;;;;;;23.33;9.18;;;-1.00;99.90;;;;;;5038522;28;20111;-76
2020/12/04 08:06:46;;;;;;;23.73;7.78;;;-0.90;99.90;;;;;;5040225;28;20105;-75
2020/12/04 08:09:20;;;;;;;22.55;8.05;;;-1.00;99.90;;;;;;5036633;28;20407;-76
2020/12/04 08:11:56;;;;;;;23.85;8.75;;;-0.90;99.90;;;;;;5042802;28;20067;-76
2020/12/04 08:14:24;;;;;;;19.30;7.75;;;-0.90;99.90;;;;;;5044931;28;20025;-76
2020/12/04 08:16:55;;;;;;;21.02;9.05;;;-0.90;99.90;;;;;;5039479;28;20017;-75
2020/12/04 08:19:29;;;;;;;20.90;8.52;;;-0.80;99.90;;;;;;4998194;28;20065;-75
2020/12/04 08:22:05;;;;;;;17.08;7.68;;;-0.80;99.90;;;;;;5020392;28;20077;-76
2020/12/04 08:24:39;;;;;;;26.48;9.27;;;-0.80;99.90;;;;;;5019615;28;20033;-76
2020/12/04 08:27:15;;;;;;;16.73;7.72;;;-0.80;99.90;;;;;;5052996;28;20099;-76
2020/12/04 08:30:01;;;;;;;21.52;8.35;;;-0.70;99.90;;;;;;5043363;28;20199;-76
2020/12/04 08:32:27;;;;;;;24.77;8.93;;;-0.60;99.90;;;;;;5034441;28;20026;-76
2020/12/04 08:35:10;;;;;;;25.98;8.95;;;-0.40;99.90;;;;;;5048442;28;20549;-75
2020/12/04 08:37:36;;;;;;;20.90;7.70;;;-0.30;99.90;;;;;;5041570;28;20134;-76
2020/12/04 08:40:02;;;;;;;19.75;7.72;;;-0.20;99.90;;;;;;5055028;28;20502;-76
2020/12/04 08:42:34;;;;;;;18.95;7.72;;;-0.10;99.90;;;;;;5053266;28;20026;-76
2020/12/04 08:45:08;;;;;;;21.20;7.82;;;0.00;99.90;;;;;;5048501;28;20483;-76
2020/12/04 08:47:52;;;;;;;21.08;9.38;;;0.10;99.90;;;;;;5024418;28;20124;-76
2020/12/04 08:50:20;;;;;;;23.92;9.95;;;0.00;99.90;;;;;;5051143;28;20033;-76
2020/12/04 08:52:51;;;;;;;23.15;9.43;;;0.10;99.90;;;;;;5050580;28;20036;-76
2020/12/04 08:55:26;;;;;;;23.05;8.57;;;0.10;99.90;;;;;;5027647;28;20106;-76
2020/12/04 08:57:54;;;;;;;24.13;8.87;;;0.20;99.90;;;;;;5008252;28;20038;-76
2020/12/04 09:00:30;;;;;;;21.88;7.97;;;0.30;99.90;;;;;;5027219;28;20283;-76
2020/12/04 09:02:56;;;;;;;21.27;8.52;;;0.30;99.90;;;;;;5033256;28;20037;-76
2020/12/04 09:05:22;;;;;;;22.70;8.93;;;0.30;99.90;;;;;;5029051;28;20079;-75
2020/12/04 09:07:48;;;;;;;27.25;9.10;;;0.20;99.90;;;;;;5054633;28;20037;-76
2020/12/04 09:10:16;;;;;;;22.80;8.55;;;0.20;99.90;;;;;;5053465;28;20032;-75
2020/12/04 09:12:43;;;;;;;15.65;6.63;;;0.20;99.90;;;;;;5051141;28;20063;-75
2020/12/04 09:15:14;;;;;;;20.15;8.35;;;0.20;99.90;;;;;;5021452;28;20113;-75
2020/12/04 09:17:40;;;;;;;23.17;8.18;;;0.10;99.90;;;;;;5024237;28;20033;-76
2020/12/04 09:20:07;;;;;;;17.17;8.35;;;0.10;99.90;;;;;;5054340;28;20082;-75
2020/12/04 09:22:34;;;;;;;25.67;9.15;;;0.10;99.90;;;;;;5052418;28;20037;-75
2020/12/04 09:25:02;;;;;;;24.17;8.55;;;0.10;99.90;;;;;;5049980;28;20031;-76
2020/12/04 09:27:28;;;;;;;22.50;8.52;;;0.10;99.90;;;;;;5041585;28;20065;-76
2020/12/04 09:29:54;;;;;;;18.30;7.95;;;0.00;99.90;;;;;;5048477;28;20036;-75
2020/12/04 09:32:21;;;;;;;16.83;7.50;;;0.00;99.90;;;;;;5051769;28;20041;-76
2020/12/04 09:34:48;;;;;;;22.05;9.43;;;0.10;99.90;;;;;;5052514;28;20044;-76
2020/12/04 09:37:16;;;;;;;19.92;8.00;;;0.10;99.90;;;;;;5049403;28;20055;-76
2020/12/04 09:39:46;;;;;;;20.40;8.18;;;0.10;99.90;;;;;;5051960;28;20071;-76
2020/12/04 09:42:13;;;;;;;18.23;8.05;;;0.10;99.90;;;;;;5053341;28;20475;-76
2020/12/04 09:44:40;;;;;;;22.67;8.23;;;0.20;99.90;;;;;;5049724;28;20017;-76
2020/12/04 09:47:06;;;;;;;21.58;9.25;;;0.20;99.90;;;;;;5036623;28;20083;-76
2020/12/04 09:49:32;;;;;;;20.95;8.38;;;0.30;99.90;;;;;;5047859;28;20471;-76
2020/12/04 09:51:58;;;;;;;19.02;8.20;;;0.30;99.90;;;;;;5034166;28;20481;-77
2020/12/04 09:54:28;;;;;;;21.85;8.82;;;0.20;99.90;;;;;;5042863;28;20033;-76
2020/12/04 09:56:55;;;;;;;21.50;8.27;;;0.30;99.90;;;;;;5035357;28;20087;-76
2020/12/04 09:59:22;;;;;;;25.10;9.38;;;0.40;99.90;;;;;;5049928;28;20208;-75
2020/12/04 10:01:50;;;;;;;16.85;7.45;;;0.40;99.90;;;;;;5047381;28;20041;-76
2020/12/04 10:04:17;;;;;;;21.10;8.45;;;0.50;99.90;;;;;;5043943;28;20029;-75
2020/12/04 10:06:43;;;;;;;19.27;8.00;;;0.60;99.90;;;;;;5037669;28;20053;-75
2020/12/04 10:09:08;;;;;;;20.02;8.95;;;0.60;99.90;;;;;;5049363;28;20516;-76
2020/12/04 10:11:34;;;;;;;22.52;9.13;;;0.70;99.90;;;;;;5037714;28;20044;-76
2020/12/04 10:14:00;;;;;;;23.58;7.95;;;0.70;99.90;;;;;;5027798;28;20057;-76
2020/12/04 10:16:26;;;;;;;15.48;8.25;;;0.80;99.90;;;;;;5023488;28;20037;-76
2020/12/04 10:18:51;;;;;;;19.35;8.52;;;0.80;99.90;;;;;;5044325;28;20037;-75
2020/12/04 10:21:19;;;;;;;23.23;8.65;;;0.80;99.90;;;;;;5027655;28;20044;-75
2020/12/04 10:23:45;;;;;;;20.55;8.70;;;0.80;99.90;;;;;;5020249;28;20103;-76
2020/12/04 10:26:10;;;;;;;23.13;10.10;;;0.90;99.90;;;;;;5047595;28;20028;-75
2020/12/04 10:28:36;;;;;;;19.83;8.73;;;1.00;99.90;;;;;;5048265;28;20033;-75
2020/12/04 10:31:02;;;;;;;22.98;8.93;;;1.10;99.90;;;;;;5048271;28;20113;-76
2020/12/04 10:33:28;;;;;;;19.88;8.13;;;1.20;99.90;;;;;;5046097;28;20597;-75
2020/12/04 10:35:53;;;;;;;19.73;7.88;;;1.30;99.90;;;;;;5038901;28;20033;-75
2020/12/04 10:38:19;;;;;;;18.42;8.13;;;1.20;99.90;;;;;;5046964;28;20033;-75
2020/12/04 10:40:45;;;;;;;20.15;7.57;;;1.30;99.90;;;;;;5047304;28;20495;-75
2020/12/04 10:43:10;;;;;;;18.85;8.65;;;1.30;99.90;;;;;;5044982;28;20021;-75
2020/12/04 10:45:36;;;;;;;20.42;7.90;;;1.30;99.90;;;;;;5038491;28;20388;-76
2020/12/04 10:48:02;;;;;;;22.10;9.15;;;1.30;99.90;;;;;;5037717;28;20044;-76
2020/12/04 10:50:28;;;;;;;19.23;8.13;;;1.30;99.90;;;;;;5045845;28;20140;-75
2020/12/04 10:52:54;;;;;;;20.83;8.15;;;1.40;99.90;;;;;;5048092;28;20029;-75
2020/12/04 10:55:20;;;;;;;20.17;8.40;;;1.40;99.90;;;;;;5041214;28;20467;-75
2020/12/04 10:57:45;;;;;;;18.33;7.20;;;1.50;99.90;;;;;;5040929;28;20040;-75
2020/12/04 11:00:12;;;;;;;19.40;7.65;;;1.50;99.90;;;;;;5048442;28;20033;-75
2020/12/04 11:02:40;;;;;;;17.08;7.47;;;1.50;99.90;;;;;;5041678;28;20037;-75
2020/12/04 11:05:36;;;;;;;15.25;6.95;;;1.50;99.90;;;;;;5032109;28;20065;-75
2020/12/04 11:08:01;;;;;;;19.00;8.25;;;1.50;99.90;;;;;;5025842;28;20530;-75
2020/12/04 11:10:27;;;;;;;14.95;7.40;;;1.60;99.90;;;;;;5046845;28;20047;-74
2020/12/04 11:12:53;;;;;;;16.90;8.25;;;1.70;99.90;;;;;;5046901;28;20024;-74
2020/12/04 11:15:18;;;;;;;19.33;7.53;;;1.80;99.90;;;;;;5030752;28;20026;-76
2020/12/04 11:17:44;;;;;;;16.35;7.38;;;1.90;99.90;;;;;;5047671;28;20037;-76
2020/12/04 11:20:10;;;;;;;18.10;7.68;;;1.90;99.90;;;;;;5046958;28;20039;-77
2020/12/04 11:22:36;;;;;;;16.38;7.50;;;1.80;99.90;;;;;;5008799;28;20083;-76
2020/12/04 11:25:03;;;;;;;19.45;7.53;;;1.90;99.90;;;;;;5022010;28;20394;-76
2020/12/04 11:27:29;;;;;;;15.95;7.10;;;1.90;99.90;;;;;;5042787;28;20589;-77
2020/12/04 11:29:55;;;;;;;14.23;7.15;;;1.90;99.90;;;;;;5036974;28;20052;-76
2020/12/04 11:32:21;;;;;;;14.15;6.20;;;1.90;99.90;;;;;;5044808;28;20469;-75
2020/12/04 11:34:46;;;;;;;16.40;7.18;;;1.80;99.90;;;;;;5042101;28;20109;-76
2020/12/04 11:37:13;;;;;;;17.60;7.32;;;1.90;99.90;;;;;;5034158;28;20024;-75
2020/12/04 11:39:40;;;;;;;15.90;7.57;;;1.90;99.90;;;;;;5028532;28;20040;-75
2020/12/04 11:42:15;;;;;;;14.15;6.38;;;1.90;99.90;;;;;;5037406;28;20096;-76
2020/12/04 11:44:40;;;;;;;14.87;6.13;;;2.00;99.90;;;;;;5037088;28;20107;-75
2020/12/04 11:47:06;;;;;;;15.18;7.07;;;2.00;99.90;;;;;;5034145;28;20033;-75
2020/12/04 11:49:32;;;;;;;18.92;7.88;;;2.00;99.90;;;;;;5038945;28;20044;-76
2020/12/04 11:51:58;;;;;;;14.40;7.25;;;1.90;99.90;;;;;;5023904;28;20034;-77
2020/12/04 11:54:24;;;;;;;14.55;7.05;;;1.90;99.90;;;;;;5038318;28;20057;-76
2020/12/04 11:56:52;;;;;;;20.30;8.40;;;2.00;99.90;;;;;;5046644;28;20025;-77
2020/12/04 11:59:18;;;;;;;13.57;7.85;;;2.10;99.90;;;;;;5045631;28;20041;-76
2020/12/04 12:01:44;;;;;;;12.80;7.47;;;2.20;99.90;;;;;;5044110;28;20086;-77
2020/12/04 12:04:14;;;;;;;16.90;7.25;;;2.20;99.90;;;;;;5032932;28;20025;-77
2020/12/04 12:06:40;;;;;;;14.43;7.57;;;2.30;99.90;;;;;;5024836;28;20025;-76
2020/12/04 12:09:06;;;;;;;17.92;7.30;;;2.40;99.90;;;;;;5045417;28;20078;-76
2020/12/04 12:11:32;;;;;;;13.68;6.20;;;2.50;99.90;;;;;;5043757;28;20021;-76
2020/12/04 12:13:58;;;;;;;16.40;6.18;;;2.50;99.90;;;;;;5033914;28;20404;-76
2020/12/04 12:16:24;;;;;;;18.45;6.72;;;2.40;99.90;;;;;;5024316;28;20519;-76
2020/12/04 12:18:50;;;;;;;13.82;6.22;;;2.40;99.90;;;;;;5027293;28;20403;-76
2020/12/04 12:21:16;;;;;;;12.75;6.55;;;2.40;99.90;;;;;;5027046;28;20044;-77
2020/12/04 12:23:42;;;;;;;10.95;4.97;;;2.40;99.90;;;;;;5028743;28;20029;-74
2020/12/04 12:26:08;;;;;;;12.85;5.88;;;2.50;99.90;;;;;;5025769;28;20033;-76
2020/12/04 12:28:34;;;;;;;15.48;6.18;;;2.50;99.90;;;;;;5039692;28;20536;-76
2020/12/04 12:31:00;;;;;;;8.93;5.05;;;2.60;99.90;;;;;;5046745;28;20033;-76
2020/12/04 12:33:26;;;;;;;11.90;5.90;;;2.60;99.90;;;;;;5033310;28;20117;-76
2020/12/04 12:35:52;;;;;;;16.83;6.18;;;2.60;99.90;;;;;;5023496;28;20116;-76
2020/12/04 12:38:18;;;;;;;14.48;6.72;;;2.60;99.90;;;;;;5026878;28;20041;-78
2020/12/04 12:40:44;;;;;;;12.88;6.28;;;2.50;99.90;;;;;;5026815;28;20129;-77
2020/12/04 12:43:10;;;;;;;11.50;5.15;;;2.50;99.90;;;;;;5043004;28;20618;-77
2020/12/04 12:45:36;;;;;;;15.95;6.32;;;2.50;99.90;;;;;;5035456;28;20060;-76